Kezdőlap
METAR-TAF:

METAR-TAF

Repülőterek :

Nebraska City Municipal Airport

Nebraska City, Nebraska, Amerikai Egyesült Államok

földrajzi szélesség: 40-36N, földrajzi hosszúság: 095-51W, magasság: 354 m

Jelenlegi meteorológiai megfigyelések

A jelentés 25 perccel ezelõtt készült, 10:35 UTC
Dél-délnyugati szél 6 kt
Hőmérséklet 23°C
Páratartalom 100%
Légköri nyomás 1012 hPa
Látótávolság: 16.1 km
Derült ég

METAR: KAFK 081035Z AUTO 20006KT 10SM CLR 23/23 A2988 RMK AO2 T02300229

Idő: 06:00 (11:00 UTC)


TAF: hiányzik

Meteorológiai megfigyelések és előrejelzések több, mint 4000 repülőtéren (METAR és TAF jelentéseket).

A térképen piros és sárga pontok jelzik az elérhető meteorológiai állomásokat.

Mozgassa az egeret a pont fölött, hogy megjelenjen az állomás neve.

Azután kattintson az időjárási megfigyelések és előrejelzések megtekintéséhez.

A térkép megváltoztatása: kattintson a fekete keresztel jelölt zöld gombra ráközelítéshez, a vonallal jelölt zöld gombra távolításhoz, vagy a zöld nyilakra a szomszédos térképek eléréséhez.


METAR-TAF: